Paper Mill Village, Vermont
Current Conditions -  °F | °C
As of 11:54 PM on Saturday 22 Nov 2014 (Local Time) from KDDH Reporting Station
Overcast Overcast  
Wind Chill: 38°   Ceiling: 2000
Heat Index: 38°   Visibility: 10mi
Dew Point: 30°   Wind: 0mph
Humidity: 73%   Direction: NA
Pressure: 30.06"   Gusts: NA
Location:  42.9246°N, 73.2476°W
Report Text: KDDH 230454Z AUTO 00000KT 10SM OVC020 03/M01 A3006 RMK AO2 RAB21E49 SLP188 P0000 T00331011 400441094
Loading
Personal Weather Stations






























Interactive Weather Map New forecast layout! Learn more

10-Day Weather Forecast

Advertisements
Track Severe Weather on mobile